Time;durP1;ratioP1;P1;durP2;ratioP2;P2;SDS_P1;SDS_P2;PMS_P1;PMS_P2;Temp;Humidity;BMP_temperature;BMP_pressure;BME280_temperature;BME280_humidity;BME280_pressure;Samples;Min_cycle;Max_cycle;Signal;HPM_P1;HPM_P2
2024/04/10 00:00:04;;;;;;;4.07;2.43;;;20.50;49.00;;;;;;5532592;25;20472;-82
2024/04/10 00:02:31;;;;;;;5.07;2.57;;;20.50;49.10;;;;;;5522193;25;20476;-81
2024/04/10 00:05:03;;;;;;;2.80;2.10;;;20.50;49.00;;;;;;5542182;25;20544;-82
2024/04/10 00:07:30;;;;;;;2.80;2.10;;;20.50;49.00;;;;;;5513319;25;20519;-82
2024/04/10 00:10:00;;;;;;;4.40;2.50;;;20.50;49.00;;;;;;5513977;25;20461;-82
2024/04/10 00:12:30;;;;;;;7.83;2.63;;;20.50;49.00;;;;;;5540994;25;20482;-81
2024/04/10 00:15:00;;;;;;;5.10;2.57;;;20.50;49.10;;;;;;5530683;25;20461;-82
2024/04/10 00:17:27;;;;;;;3.57;2.50;;;20.50;49.10;;;;;;5530202;25;20514;-82
2024/04/10 00:19:57;;;;;;;3.27;2.43;;;20.50;49.00;;;;;;5552264;25;20464;-82
2024/04/10 00:22:26;;;;;;;5.37;2.93;;;20.40;48.90;;;;;;5519342;25;20522;-83
2024/04/10 00:24:56;;;;;;;3.80;2.50;;;20.40;49.20;;;;;;5517284;25;20465;-83
2024/04/10 00:27:24;;;;;;;5.50;2.83;;;20.40;49.20;;;;;;5541370;25;20516;-82
2024/04/10 00:29:56;;;;;;;4.00;2.60;;;20.40;49.20;;;;;;5536669;25;20550;-84
2024/04/10 00:32:25;;;;;;;5.87;2.80;;;20.40;49.20;;;;;;5502178;26;20469;-82
2024/04/10 00:34:55;;;;;;;3.17;2.67;;;20.40;49.20;;;;;;5499728;26;20530;-82
2024/04/10 00:37:22;;;;;;;5.13;2.73;;;20.40;49.10;;;;;;5521281;26;20554;-83
2024/04/10 00:39:52;;;;;;;4.00;2.73;;;20.40;49.20;;;;;;5502784;26;20486;-82
2024/04/10 00:42:19;;;;;;;3.90;2.67;;;20.40;49.20;;;;;;5508274;26;20462;-82
2024/04/10 00:44:53;;;;;;;2.97;2.70;;;20.40;49.10;;;;;;5506672;26;20511;-82
2024/04/10 00:47:23;;;;;;;11.63;2.80;;;20.30;49.00;;;;;;5517061;26;20454;-82
2024/04/10 00:49:53;;;;;;;4.37;2.80;;;20.30;49.10;;;;;;5493100;26;20477;-81
2024/04/10 00:52:21;;;;;;;3.87;2.50;;;20.40;49.20;;;;;;5514624;26;20497;-82
2024/04/10 00:54:50;;;;;;;4.20;2.27;;;20.30;49.00;;;;;;5507393;26;20466;-82
2024/04/10 00:57:17;;;;;;;3.93;2.60;;;20.30;49.00;;;;;;5516714;25;20467;-82
2024/04/10 00:59:47;;;;;;;3.67;2.57;;;20.30;49.00;;;;;;5513371;26;20523;-81
2024/04/10 01:02:15;;;;;;;4.90;2.40;;;20.30;49.10;;;;;;5513121;25;20466;-82
2024/04/10 01:04:49;;;;;;;5.27;2.90;;;20.30;49.10;;;;;;5520704;26;20545;-81
2024/04/10 01:07:16;;;;;;;5.10;2.43;;;20.30;49.20;;;;;;5511081;25;20513;-81
2024/04/10 01:09:46;;;;;;;4.00;2.60;;;20.30;49.20;;;;;;5504183;26;20547;-81
2024/04/10 01:12:13;;;;;;;3.33;2.20;;;20.20;49.10;;;;;;5512750;25;20501;-82
2024/04/10 01:14:43;;;;;;;3.70;2.47;;;20.20;49.10;;;;;;5508202;26;20478;-81
2024/04/10 01:17:10;;;;;;;4.20;2.57;;;20.20;49.10;;;;;;5507985;25;20525;-81
2024/04/10 01:19:40;;;;;;;2.47;2.27;;;20.20;49.20;;;;;;5496264;25;21018;-82
2024/04/10 01:22:10;;;;;;;6.13;2.70;;;20.20;49.40;;;;;;5511634;26;20468;-82
2024/04/10 01:24:42;;;;;;;3.27;2.13;;;20.20;49.40;;;;;;5513198;25;20470;-81
2024/04/10 01:27:10;;;;;;;3.83;2.30;;;20.20;49.40;;;;;;5523164;25;20464;-81
2024/04/10 01:29:40;;;;;;;3.67;2.20;;;20.20;49.40;;;;;;5518535;25;20464;-81
2024/04/10 01:32:07;;;;;;;3.73;2.00;;;20.20;49.50;;;;;;5523531;26;20462;-82
2024/04/10 01:34:37;;;;;;;3.97;2.10;;;20.20;49.40;;;;;;5519241;26;20533;-82
2024/04/10 01:37:04;;;;;;;2.53;2.33;;;20.20;49.40;;;;;;5502796;26;20470;-82
2024/04/10 01:39:34;;;;;;;2.30;2.10;;;20.10;49.40;;;;;;5504866;25;20506;-83
2024/04/10 01:42:04;;;;;;;3.10;2.07;;;20.10;49.40;;;;;;5496060;26;20461;-83
2024/04/10 01:44:34;;;;;;;4.00;2.00;;;20.10;49.50;;;;;;5507918;26;20528;-83
2024/04/10 01:47:02;;;;;;;3.33;2.10;;;20.10;49.50;;;;;;5498538;26;20520;-82
2024/04/10 01:49:32;;;;;;;2.83;2.40;;;20.20;49.50;;;;;;5500216;26;20579;-83
2024/04/10 01:51:59;;;;;;;2.80;2.03;;;20.10;49.40;;;;;;5513643;26;20474;-81
2024/04/10 01:54:29;;;;;;;2.87;2.13;;;20.10;49.50;;;;;;5498332;26;20462;-82
2024/04/10 01:56:56;;;;;;;3.17;2.50;;;20.10;49.30;;;;;;5496062;26;20804;-82
2024/04/10 01:59:28;;;;;;;2.57;1.97;;;20.10;49.50;;;;;;5514649;26;20472;-82
2024/04/10 02:01:56;;;;;;;6.30;2.50;;;20.10;49.50;;;;;;5514828;25;20518;-83
2024/04/10 02:04:25;;;;;;;3.90;1.70;;;20.10;49.40;;;;;;5498535;26;20462;-82
2024/04/10 02:06:53;;;;;;;4.10;2.43;;;20.10;49.40;;;;;;5510927;26;20464;-82
2024/04/10 02:09:23;;;;;;;2.23;2.00;;;20.10;49.40;;;;;;5496402;26;20552;-83
2024/04/10 02:11:50;;;;;;;2.00;1.80;;;20.00;49.50;;;;;;5500378;26;20520;-83
2024/04/10 02:14:20;;;;;;;2.43;2.03;;;20.00;49.60;;;;;;5520732;25;20466;-82
2024/04/10 02:16:50;;;;;;;2.60;1.70;;;20.00;49.50;;;;;;5521483;25;20472;-82
2024/04/10 02:19:20;;;;;;;2.57;2.37;;;20.00;49.50;;;;;;5494813;26;20477;-82
2024/04/10 02:21:48;;;;;;;4.37;2.60;;;20.00;49.60;;;;;;5509137;25;20465;-82
2024/04/10 02:24:17;;;;;;;3.23;2.47;;;20.00;49.40;;;;;;5494252;26;20465;-80
2024/04/10 02:26:44;;;;;;;2.67;2.47;;;20.00;49.50;;;;;;5496061;26;20462;-81
2024/04/10 02:29:17;;;;;;;3.80;2.50;;;20.00;49.50;;;;;;5509744;26;20519;-81
2024/04/10 02:31:44;;;;;;;4.90;3.00;;;19.90;49.50;;;;;;5503451;25;20547;-81
2024/04/10 02:34:16;;;;;;;3.00;2.43;;;19.90;49.60;;;;;;5501002;26;20588;-82
2024/04/10 02:36:44;;;;;;;2.97;2.70;;;19.90;49.50;;;;;;5496702;25;20466;-82
2024/04/10 02:39:14;;;;;;;4.97;3.40;;;19.90;49.60;;;;;;5494559;26;20524;-82
2024/04/10 02:41:41;;;;;;;4.73;3.40;;;19.90;49.40;;;;;;5493994;26;20477;-82
2024/04/10 02:44:12;;;;;;;4.20;3.60;;;19.90;49.60;;;;;;5496357;26;20561;-82
2024/04/10 02:46:39;;;;;;;5.43;4.10;;;19.90;49.50;;;;;;5493862;26;20509;-82
2024/04/10 02:49:09;;;;;;;5.67;4.33;;;19.90;49.60;;;;;;5493376;26;20458;-82
2024/04/10 02:51:38;;;;;;;6.50;4.40;;;19.90;49.60;;;;;;5506858;26;20558;-82
2024/04/10 02:54:08;;;;;;;8.07;4.60;;;19.90;49.50;;;;;;5493675;26;20442;-81
2024/04/10 02:56:36;;;;;;;7.10;4.70;;;19.90;49.40;;;;;;5504598;26;20457;-82
2024/04/10 02:59:05;;;;;;;8.60;4.90;;;19.90;49.50;;;;;;5508876;25;20462;-82
2024/04/10 03:01:32;;;;;;;9.53;4.60;;;19.90;49.40;;;;;;5499860;26;20466;-82
2024/04/10 03:04:02;;;;;;;9.27;5.27;;;19.90;49.50;;;;;;5493664;26;21094;-82
2024/04/10 03:06:30;;;;;;;7.17;4.47;;;19.90;49.40;;;;;;5502129;26;20477;-82
2024/04/10 03:09:02;;;;;;;7.60;4.80;;;19.90;49.50;;;;;;5510053;26;20520;-82
2024/04/10 03:11:29;;;;;;;9.47;5.40;;;19.90;49.40;;;;;;5508346;26;20466;-81
2024/04/10 03:13:59;;;;;;;7.67;5.17;;;19.90;49.40;;;;;;5496969;26;20541;-81
2024/04/10 03:16:26;;;;;;;8.90;4.73;;;19.90;49.40;;;;;;5516550;26;20465;-81
2024/04/10 03:18:56;;;;;;;7.90;5.50;;;19.90;49.50;;;;;;5508083;26;20470;-81
2024/04/10 03:21:23;;;;;;;10.47;6.00;;;19.90;49.40;;;;;;5488037;26;20871;-81
2024/04/10 03:23:53;;;;;;;9.00;5.07;;;19.80;49.40;;;;;;5511493;26;20464;-82
2024/04/10 03:26:23;;;;;;;9.07;6.00;;;19.80;49.40;;;;;;5523882;26;20513;-82
2024/04/10 03:28:53;;;;;;;9.67;5.77;;;19.80;49.30;;;;;;5499455;25;20462;-82
2024/04/10 03:31:20;;;;;;;8.97;5.70;;;19.80;49.30;;;;;;5493122;26;20460;-81
2024/04/10 03:33:50;;;;;;;8.60;5.50;;;19.80;49.30;;;;;;5506568;26;20466;-81
2024/04/10 03:36:18;;;;;;;10.00;6.07;;;19.80;49.40;;;;;;5514111;26;20553;-81
2024/04/10 03:38:51;;;;;;;9.93;5.70;;;19.80;49.50;;;;;;5512281;25;20514;-81
2024/04/10 03:41:19;;;;;;;9.43;5.60;;;19.80;49.40;;;;;;5491656;26;20525;-81
2024/04/10 03:43:52;;;;;;;8.63;5.77;;;19.80;49.30;;;;;;5490998;26;20530;-82
2024/04/10 03:46:22;;;;;;;7.00;5.40;;;19.80;49.40;;;;;;5513196;26;20583;-81
2024/04/10 03:48:52;;;;;;;10.60;6.30;;;19.80;49.30;;;;;;5506109;26;20481;-81
2024/04/10 03:51:19;;;;;;;12.03;6.93;;;19.80;49.30;;;;;;5492110;26;20521;-81
2024/04/10 03:53:49;;;;;;;9.07;5.50;;;19.80;49.40;;;;;;5509218;26;20575;-81
2024/04/10 03:56:17;;;;;;;10.13;6.43;;;19.80;49.50;;;;;;5491785;26;20466;-80
2024/04/10 03:58:51;;;;;;;9.33;6.57;;;19.80;49.40;;;;;;5491942;26;20474;-81
2024/04/10 04:01:18;;;;;;;9.83;6.50;;;19.80;49.30;;;;;;5491610;26;20457;-81
2024/04/10 04:03:48;;;;;;;9.20;6.30;;;19.80;49.50;;;;;;5498579;25;20516;-82
2024/04/10 04:06:15;;;;;;;11.63;7.30;;;19.80;49.40;;;;;;5495246;26;20508;-83
2024/04/10 04:08:46;;;;;;;9.70;6.83;;;19.70;49.40;;;;;;5497365;26;20522;-82
2024/04/10 04:11:14;;;;;;;14.20;6.77;;;19.70;49.50;;;;;;5509225;26;20514;-82
2024/04/10 04:13:44;;;;;;;10.37;6.63;;;19.70;49.40;;;;;;5500678;26;20466;-82
2024/04/10 04:16:14;;;;;;;12.53;6.60;;;19.70;49.40;;;;;;5518517;25;20464;-83
2024/04/10 04:18:44;;;;;;;9.27;6.63;;;19.70;49.40;;;;;;5503062;25;20469;-82
2024/04/10 04:21:11;;;;;;;10.00;6.40;;;19.70;49.50;;;;;;5511887;26;20574;-83
2024/04/10 04:23:42;;;;;;;12.40;7.60;;;19.70;49.40;;;;;;5499679;26;20461;-83
2024/04/10 04:26:10;;;;;;;12.70;7.40;;;19.70;49.50;;;;;;5509255;25;20536;-82
2024/04/10 04:28:39;;;;;;;15.60;7.67;;;19.70;49.60;;;;;;5506539;26;20476;-82
2024/04/10 04:31:07;;;;;;;14.63;7.60;;;19.60;49.40;;;;;;5499813;26;20571;-82
2024/04/10 04:33:39;;;;;;;9.33;6.47;;;19.70;49.40;;;;;;5511702;25;20512;-82
2024/04/10 04:36:09;;;;;;;13.20;7.80;;;19.60;49.50;;;;;;5495637;26;21017;-82
2024/04/10 04:38:39;;;;;;;10.47;7.50;;;19.60;49.60;;;;;;5512813;26;20470;-83
2024/04/10 04:41:06;;;;;;;12.20;8.03;;;19.60;49.60;;;;;;5518743;26;20469;-83
2024/04/10 04:43:35;;;;;;;11.77;8.00;;;19.60;49.50;;;;;;5499834;26;20562;-83
2024/04/10 04:46:03;;;;;;;14.10;8.53;;;19.60;49.40;;;;;;5498213;26;20469;-82
2024/04/10 04:48:33;;;;;;;15.77;8.90;;;19.60;49.50;;;;;;5522726;26;20468;-83
2024/04/10 04:51:07;;;;;;;11.63;7.50;;;19.50;49.60;;;;;;5513059;26;20573;-82
2024/04/10 04:53:37;;;;;;;13.23;8.20;;;19.60;49.70;;;;;;5519455;26;20507;-82
2024/04/10 04:56:04;;;;;;;14.83;8.60;;;19.50;49.50;;;;;;5494608;26;20473;-82
2024/04/10 04:58:34;;;;;;;15.23;8.70;;;19.50;49.40;;;;;;5495661;26;20514;-83
2024/04/10 05:01:01;;;;;;;12.70;8.33;;;19.50;49.60;;;;;;5502589;25;20524;-81
2024/04/10 05:06:19;;;;;;;13.47;9.00;;;19.50;49.50;;;;;;5497533;26;20457;-81
2024/04/10 05:08:50;;;;;;;16.17;8.80;;;19.50;49.60;;;;;;5494037;26;20458;-81
2024/04/10 05:11:19;;;;;;;13.83;8.43;;;19.60;49.60;;;;;;5494184;26;20466;-81
2024/04/10 05:13:49;;;;;;;12.23;8.27;;;19.60;49.50;;;;;;5492898;26;20864;-81
2024/04/10 05:16:16;;;;;;;13.77;8.77;;;19.60;49.60;;;;;;5498731;26;20470;-81
2024/04/10 05:18:46;;;;;;;13.40;8.40;;;19.50;50.10;;;;;;5493955;26;20478;-82
2024/04/10 05:21:16;;;;;;;13.87;8.90;;;19.50;49.60;;;;;;5496705;26;20465;-81
2024/04/10 05:23:46;;;;;;;14.30;8.90;;;19.60;49.50;;;;;;5525642;25;20464;-82
2024/04/10 05:26:13;;;;;;;13.73;9.30;;;19.50;49.50;;;;;;5495317;25;21046;-81
2024/04/10 05:28:43;;;;;;;13.13;9.00;;;19.50;49.50;;;;;;5508204;26;20512;-81
2024/04/10 05:31:11;;;;;;;13.70;9.20;;;19.50;49.60;;;;;;5494807;25;20536;-81
2024/04/10 05:33:41;;;;;;;13.60;9.30;;;19.50;49.50;;;;;;5513857;26;20460;-81
2024/04/10 05:36:09;;;;;;;14.63;9.30;;;19.60;49.70;;;;;;5500526;25;20532;-82
2024/04/10 05:38:41;;;;;;;13.90;9.10;;;19.50;49.60;;;;;;5503345;26;20466;-82
2024/04/10 05:41:08;;;;;;;14.93;9.50;;;19.60;49.70;;;;;;5492011;26;20481;-81
2024/04/10 05:43:38;;;;;;;13.57;9.03;;;19.60;49.60;;;;;;5492124;26;21123;-82
2024/04/10 05:46:05;;;;;;;16.00;9.70;;;19.60;49.50;;;;;;5491009;26;20466;-81
2024/04/10 05:48:35;;;;;;;16.20;10.40;;;19.70;49.50;;;;;;5490835;26;20573;-82
2024/04/10 05:51:02;;;;;;;15.60;9.40;;;19.70;50.10;;;;;;5505647;26;20464;-82
2024/04/10 05:53:33;;;;;;;16.03;9.90;;;19.70;49.80;;;;;;5498804;26;20466;-82
2024/04/10 05:56:04;;;;;;;15.33;9.43;;;19.60;49.50;;;;;;5515636;26;20997;-82
2024/04/10 05:58:36;;;;;;;15.93;10.03;;;19.70;49.50;;;;;;5508052;26;20529;-81
2024/04/10 06:01:07;;;;;;;13.60;10.03;;;19.70;49.40;;;;;;5502037;26;20460;-81
2024/04/10 06:03:37;;;;;;;13.90;9.33;;;19.70;49.40;;;;;;5492042;26;20506;-81
2024/04/10 06:06:08;;;;;;;15.30;10.10;;;19.70;49.50;;;;;;5495379;26;20469;-81
2024/04/10 06:08:39;;;;;;;17.23;11.00;;;19.70;49.40;;;;;;5494116;25;20529;-81
2024/04/10 06:11:09;;;;;;;14.43;9.23;;;19.80;49.40;;;;;;5493652;26;20466;-82
2024/04/10 06:13:39;;;;;;;15.07;9.57;;;19.80;49.40;;;;;;5496913;26;20517;-81
2024/04/10 06:16:06;;;;;;;15.60;10.63;;;19.80;49.50;;;;;;5491804;26;20466;-81
2024/04/10 06:18:36;;;;;;;16.33;9.87;;;19.80;49.40;;;;;;5495247;26;20470;-81
2024/04/10 06:21:04;;;;;;;12.97;8.97;;;19.90;49.40;;;;;;5510445;26;20464;-81
2024/04/10 06:23:34;;;;;;;15.60;9.80;;;19.90;49.40;;;;;;5499626;26;20516;-81
2024/04/10 06:26:02;;;;;;;15.87;10.00;;;19.90;49.20;;;;;;5494998;26;20465;-79
2024/04/10 06:28:35;;;;;;;14.23;9.90;;;19.90;49.30;;;;;;5491485;26;20524;-81
2024/04/10 06:31:03;;;;;;;14.10;9.30;;;20.00;49.50;;;;;;5493328;26;20462;-81
2024/04/10 06:33:33;;;;;;;14.93;10.03;;;20.00;49.60;;;;;;5493079;26;20470;-81
2024/04/10 06:36:03;;;;;;;13.20;9.37;;;20.00;49.40;;;;;;5494322;26;20478;-81
2024/04/10 06:38:31;;;;;;;14.03;9.63;;;20.10;49.40;;;;;;5492984;26;20573;-81
2024/04/10 06:41:02;;;;;;;14.50;9.47;;;20.10;49.40;;;;;;5492968;26;20462;-81
2024/04/10 06:43:32;;;;;;;13.43;8.90;;;20.20;49.40;;;;;;5507022;26;20466;-81
2024/04/10 06:46:03;;;;;;;16.33;10.20;;;20.30;49.20;;;;;;5491890;26;20513;-81
2024/04/10 06:48:30;;;;;;;16.17;9.90;;;20.40;49.20;;;;;;5491811;26;20466;-81
2024/04/10 06:51:01;;;;;;;15.40;10.00;;;20.40;49.10;;;;;;5492832;26;20522;-81
2024/04/10 06:53:29;;;;;;;14.57;9.80;;;20.50;49.40;;;;;;5491689;25;20477;-81
2024/04/10 06:56:00;;;;;;;15.00;9.80;;;20.50;49.30;;;;;;5508491;26;20472;-81
2024/04/10 06:58:28;;;;;;;16.70;9.27;;;20.50;49.20;;;;;;5491395;26;20486;-81
2024/04/10 07:01:02;;;;;;;13.20;9.80;;;20.60;49.20;;;;;;5493844;26;20466;-81
2024/04/10 07:03:30;;;;;;;16.20;10.20;;;20.60;49.70;;;;;;5491510;26;20474;-81
2024/04/10 07:06:07;;;;;;;16.70;9.87;;;20.70;49.10;;;;;;5497392;26;20538;-82
2024/04/10 07:08:35;;;;;;;14.47;9.90;;;20.70;49.00;;;;;;5491926;26;20462;-82
2024/04/10 07:11:12;;;;;;;14.83;9.43;;;20.70;48.90;;;;;;5516116;26;20468;-81
2024/04/10 07:13:44;;;;;;;14.10;9.40;;;20.70;49.00;;;;;;5494390;26;20502;-82
2024/04/10 07:16:16;;;;;;;13.40;9.23;;;20.70;49.10;;;;;;5497525;26;20575;-82
2024/04/10 07:18:44;;;;;;;15.00;9.57;;;20.80;49.30;;;;;;5502048;26;20525;-82
2024/04/10 07:21:14;;;;;;;14.23;9.20;;;20.90;49.40;;;;;;5504340;26;20517;-81
2024/04/10 07:23:45;;;;;;;12.83;8.70;;;21.00;49.30;;;;;;5503799;25;20468;-82
2024/04/10 07:26:13;;;;;;;13.30;9.00;;;21.00;49.10;;;;;;5490574;26;20466;-82
2024/04/10 07:28:46;;;;;;;13.93;9.07;;;21.00;49.00;;;;;;5498919;26;20448;-82
2024/04/10 07:31:20;;;;;;;14.07;8.23;;;21.00;49.00;;;;;;5510944;25;20458;-82
2024/04/10 07:33:54;;;;;;;12.50;7.87;;;21.10;49.10;;;;;;5495195;26;20469;-81
2024/04/10 07:36:25;;;;;;;13.20;8.83;;;21.10;49.20;;;;;;5494708;26;20470;-84
2024/04/10 07:38:55;;;;;;;12.33;8.00;;;21.20;49.20;;;;;;5505629;26;20478;-85
2024/04/10 07:41:24;;;;;;;14.20;8.37;;;21.20;49.30;;;;;;5514794;25;20576;-84
2024/04/10 07:43:55;;;;;;;12.57;7.90;;;21.20;49.40;;;;;;5511133;26;20477;-84
2024/04/10 07:46:27;;;;;;;9.63;7.57;;;21.30;49.50;;;;;;5497558;26;20518;-81
2024/04/10 07:48:59;;;;;;;10.90;7.57;;;21.30;49.70;;;;;;5510400;26;20452;-83
2024/04/10 07:51:27;;;;;;;12.30;7.50;;;21.40;50.50;;;;;;5512232;25;20499;-84
2024/04/10 07:53:57;;;;;;;12.10;7.90;;;21.50;50.00;;;;;;5500203;25;20458;-83
2024/04/10 07:56:26;;;;;;;11.10;2.90;;;21.60;50.20;;;;;;5495884;26;20474;-81
2024/04/10 07:58:56;;;;;;;9.10;2.43;;;21.30;46.40;;;;;;5489981;26;20537;-78
2024/04/10 08:01:26;;;;;;;8.93;2.30;;;20.00;45.30;;;;;;5490091;26;20525;-80
2024/04/10 08:03:56;;;;;;;6.50;2.23;;;19.40;48.70;;;;;;5489506;26;20462;-80
2024/04/10 08:06:23;;;;;;;10.43;2.43;;;18.50;49.10;;;;;;5493863;26;20458;-78
2024/04/10 08:08:52;;;;;;;6.33;2.60;;;17.30;48.30;;;;;;5502082;25;20474;-78
2024/04/10 08:11:21;;;;;;;6.87;2.53;;;17.20;49.00;;;;;;5490318;26;20470;-81
2024/04/10 08:13:52;;;;;;;11.90;2.80;;;17.10;49.00;;;;;;5493412;26;20458;-78
2024/04/10 08:16:20;;;;;;;7.90;2.70;;;16.80;50.30;;;;;;5511238;26;20458;-80
2024/04/10 08:18:52;;;;;;;11.33;2.90;;;17.90;52.60;;;;;;5490682;26;21069;-78
2024/04/10 08:21:20;;;;;;;14.53;2.13;;;19.10;51.10;;;;;;5506512;26;20504;-77
2024/04/10 08:24:03;;;;;;;12.00;2.23;;;20.10;50.30;;;;;;5490465;26;20470;-79
2024/04/10 08:26:32;;;;;;;12.97;2.37;;;20.90;49.60;;;;;;5504764;26;20466;-79
2024/04/10 08:29:02;;;;;;;8.20;1.83;;;21.40;48.50;;;;;;5507982;25;20460;-78
2024/04/10 08:31:30;;;;;;;17.37;4.90;;;21.80;48.20;;;;;;5501431;25;20466;-77
2024/04/10 08:34:03;;;;;;;15.03;7.70;;;22.30;48.40;;;;;;5514979;25;20458;-77
2024/04/10 08:36:32;;;;;;;13.60;6.67;;;22.60;48.70;;;;;;5490593;26;20554;-78
2024/04/10 08:39:02;;;;;;;13.57;6.27;;;23.10;49.50;;;;;;5492635;26;20529;-79
2024/04/10 08:41:30;;;;;;;21.63;7.67;;;23.40;49.80;;;;;;5490691;26;20457;-79
2024/04/10 08:44:00;;;;;;;25.23;6.57;;;23.50;48.90;;;;;;5519174;26;20460;-81
2024/04/10 08:46:30;;;;;;;15.60;5.03;;;23.70;49.50;;;;;;5521972;25;20513;-82
2024/04/10 08:49:04;;;;;;;9.80;4.40;;;23.90;49.90;;;;;;5503923;25;20462;-81
2024/04/10 08:51:33;;;;;;;13.50;5.60;;;24.00;50.00;;;;;;5505023;25;20545;-81
2024/04/10 08:54:08;;;;;;;7.50;4.73;;;24.10;50.20;;;;;;5503180;26;20454;-83
2024/04/10 08:56:39;;;;;;;10.43;4.37;;;24.10;50.20;;;;;;5512127;26;20458;-81
2024/04/10 08:59:09;;;;;;;10.43;4.00;;;24.10;50.30;;;;;;5502619;26;20461;-81
2024/04/10 09:01:37;;;;;;;26.27;7.20;;;24.10;50.50;;;;;;5491994;26;20574;-84
2024/04/10 09:04:13;;;;;;;15.07;5.30;;;24.10;50.30;;;;;;5509095;26;20497;-83
2024/04/10 09:06:40;;;;;;;9.63;4.60;;;24.40;50.20;;;;;;5498731;26;20514;-83
2024/04/10 09:09:11;;;;;;;12.87;4.90;;;24.60;49.40;;;;;;5529482;26;20457;-83
2024/04/10 09:11:38;;;;;;;10.87;4.33;;;24.70;49.20;;;;;;5528249;25;20640;-83
2024/04/10 09:14:11;;;;;;;9.97;4.17;;;24.70;48.90;;;;;;5513320;25;20522;-83
2024/04/10 09:16:39;;;;;;;8.70;4.37;;;24.70;48.90;;;;;;5517385;26;20516;-84
2024/04/10 09:19:13;;;;;;;12.00;4.73;;;24.80;48.80;;;;;;5522485;26;20974;-83
2024/04/10 09:21:41;;;;;;;11.00;4.60;;;24.70;48.70;;;;;;5517691;26;20549;-82
2024/04/10 09:24:13;;;;;;;8.83;4.30;;;24.80;48.80;;;;;;5511178;25;20466;-85
2024/04/10 09:26:43;;;;;;;6.00;3.90;;;24.70;48.60;;;;;;5503066;26;20498;-84
2024/04/10 09:29:13;;;;;;;6.90;4.20;;;24.80;48.70;;;;;;5499123;26;20570;-84
2024/04/10 09:31:42;;;;;;;7.80;3.57;;;24.80;48.50;;;;;;5506336;26;20460;-83
2024/04/10 09:34:17;;;;;;;6.97;3.80;;;24.80;48.60;;;;;;5526630;26;20461;-84
2024/04/10 09:36:44;;;;;;;9.20;4.03;;;24.80;48.50;;;;;;5517451;25;20516;-84
2024/04/10 09:39:22;;;;;;;4.93;3.40;;;24.80;48.50;;;;;;5509537;26;20474;-82
2024/04/10 09:41:52;;;;;;;5.70;3.70;;;24.80;48.60;;;;;;5499716;26;20488;-84
2024/04/10 09:44:23;;;;;;;4.80;3.60;;;24.80;48.50;;;;;;5498526;26;20477;-84
2024/04/10 09:46:54;;;;;;;9.53;3.60;;;24.80;48.80;;;;;;5500388;26;20585;-84
2024/04/10 09:49:29;;;;;;;5.30;3.13;;;25.10;49.10;;;;;;5495505;26;20462;-85
2024/04/10 09:51:57;;;;;;;3.93;3.10;;;25.20;48.40;;;;;;5496148;26;20549;-84
2024/04/10 09:54:28;;;;;;;8.33;3.60;;;25.30;48.40;;;;;;5516493;25;20559;-85
2024/04/10 09:56:55;;;;;;;5.17;3.10;;;25.50;48.40;;;;;;5497324;25;20477;-84
2024/04/10 09:59:25;;;;;;;7.83;3.30;;;25.70;48.10;;;;;;5493565;26;20462;-84
2024/04/10 10:01:54;;;;;;;5.03;3.20;;;25.70;48.20;;;;;;5496804;26;20442;-83
2024/04/10 10:04:28;;;;;;;6.80;3.27;;;26.00;48.40;;;;;;5493369;26;20469;-84
2024/04/10 10:07:00;;;;;;;6.37;3.30;;;26.30;48.00;;;;;;5495933;26;20524;-84
2024/04/10 10:09:29;;;;;;;3.40;3.10;;;26.50;47.30;;;;;;5493181;26;20503;-83
2024/04/10 10:11:57;;;;;;;7.40;3.17;;;26.60;47.00;;;;;;5495302;26;20442;-84
2024/04/10 10:14:27;;;;;;;3.77;3.07;;;26.50;46.90;;;;;;5492239;26;20523;-83
2024/04/10 10:17:05;;;;;;;6.97;3.00;;;26.30;46.80;;;;;;5492161;26;20530;-80
2024/04/10 10:19:38;;;;;;;9.00;3.57;;;26.20;47.00;;;;;;5506259;26;20466;-82
2024/04/10 10:22:05;;;;;;;5.73;3.20;;;26.10;47.00;;;;;;5506730;26;20462;-82
2024/04/10 10:24:38;;;;;;;4.57;3.10;;;26.10;47.10;;;;;;5494163;26;20555;-83
2024/04/10 10:27:06;;;;;;;7.00;2.53;;;26.00;47.20;;;;;;5508676;25;20466;-83
2024/04/10 10:29:36;;;;;;;4.70;2.80;;;25.90;47.30;;;;;;5507638;26;20462;-82
2024/04/10 10:32:05;;;;;;;4.17;3.10;;;25.90;47.30;;;;;;5499774;26;20536;-83
2024/04/10 10:34:34;;;;;;;4.97;3.37;;;25.90;47.30;;;;;;5500494;26;20494;-83
2024/04/10 10:37:06;;;;;;;4.50;3.13;;;25.80;47.40;;;;;;5502903;25;20443;-82
2024/04/10 10:39:36;;;;;;;3.53;2.63;;;25.80;47.40;;;;;;5504568;26;21049;-81
2024/04/10 10:42:04;;;;;;;7.57;3.63;;;25.70;47.40;;;;;;5499655;26;20572;-83
2024/04/10 10:44:34;;;;;;;2.97;2.77;;;25.90;47.50;;;;;;5495852;25;20474;-83
2024/04/10 10:47:06;;;;;;;2.63;2.43;;;26.00;47.40;;;;;;5511880;25;20781;-81
2024/04/10 10:49:38;;;;;;;4.80;2.97;;;25.90;47.10;;;;;;5495612;26;20466;-82
2024/04/10 10:52:08;;;;;;;5.03;2.80;;;26.00;47.20;;;;;;5493202;26;20477;-83
2024/04/10 10:54:37;;;;;;;3.93;2.73;;;26.10;47.40;;;;;;5502019;26;20438;-83
2024/04/10 10:57:05;;;;;;;11.10;2.87;;;26.30;47.00;;;;;;5505889;25;20514;-84
2024/04/10 10:59:35;;;;;;;4.20;2.50;;;26.30;46.80;;;;;;5509596;25;20454;-83
2024/04/10 11:02:10;;;;;;;5.83;2.80;;;26.30;46.80;;;;;;5511585;25;20524;-83
2024/04/10 11:04:40;;;;;;;5.03;3.30;;;26.20;46.80;;;;;;5515642;25;20497;-83
2024/04/10 11:07:10;;;;;;;4.47;2.93;;;26.20;46.90;;;;;;5507633;26;20449;-84
2024/04/10 11:09:40;;;;;;;3.97;2.70;;;26.40;47.60;;;;;;5502130;25;20446;-83
2024/04/10 11:12:07;;;;;;;3.13;2.90;;;26.70;46.70;;;;;;5513731;26;20446;-84
2024/04/10 11:14:37;;;;;;;5.47;3.03;;;26.90;46.40;;;;;;5540001;25;20452;-83
2024/04/10 11:17:07;;;;;;;4.40;2.70;;;26.90;46.20;;;;;;5532117;25;20490;-83
2024/04/10 11:19:40;;;;;;;4.00;3.10;;;26.90;46.00;;;;;;5529155;25;20476;-81
2024/04/10 11:22:21;;;;;;;3.07;2.87;;;27.10;46.00;;;;;;5533083;25;20470;-82
2024/04/10 11:24:52;;;;;;;3.47;2.30;;;27.30;45.70;;;;;;5540618;25;20433;-83
2024/04/10 11:27:19;;;;;;;3.43;2.43;;;27.40;45.50;;;;;;5530115;25;20445;-83
2024/04/10 11:29:50;;;;;;;4.50;2.80;;;27.40;45.40;;;;;;5542739;25;20425;-81
2024/04/10 11:32:18;;;;;;;3.30;3.00;;;27.70;45.60;;;;;;5530661;26;20434;-82
2024/04/10 11:34:48;;;;;;;5.73;2.70;;;28.40;44.60;;;;;;5523503;26;20525;-81
2024/04/10 11:37:15;;;;;;;2.63;2.43;;;28.40;43.90;;;;;;5517140;26;20504;-83
2024/04/10 11:39:48;;;;;;;2.77;2.43;;;28.30;43.80;;;;;;5530216;25;20437;-82
2024/04/10 11:42:15;;;;;;;4.17;2.30;;;28.10;44.00;;;;;;5531101;25;20465;-84
2024/04/10 11:44:46;;;;;;;4.10;2.37;;;28.30;44.10;;;;;;5532167;25;20458;-82
2024/04/10 11:47:13;;;;;;;2.60;2.40;;;28.50;43.80;;;;;;5510950;26;20487;-82
2024/04/10 11:49:45;;;;;;;5.13;2.80;;;28.50;43.30;;;;;;5527062;25;20523;-83
2024/04/10 11:52:12;;;;;;;3.97;2.43;;;28.70;43.80;;;;;;5533884;25;20466;-82
2024/04/10 11:54:42;;;;;;;2.30;2.10;;;28.80;43.00;;;;;;5526315;26;20434;-83
2024/04/10 11:57:12;;;;;;;2.40;1.97;;;28.80;43.00;;;;;;5510338;26;20431;-81
2024/04/10 11:59:42;;;;;;;1.83;1.57;;;30.20;43.40;;;;;;5511396;26;20434;-82
2024/04/10 12:02:09;;;;;;;2.63;1.67;;;32.10;40.20;;;;;;5524292;25;20549;-81
2024/04/10 12:04:40;;;;;;;3.70;2.00;;;32.80;37.60;;;;;;5535622;25;20470;-81
2024/04/10 12:07:07;;;;;;;1.47;1.37;;;33.20;38.50;;;;;;5513078;26;20466;-82
2024/04/10 12:09:39;;;;;;;2.20;1.63;;;35.00;36.60;;;;;;5535278;26;20503;-82
2024/04/10 12:12:06;;;;;;;1.00;1.00;;;35.90;34.50;;;;;;5525980;26;20464;-83
2024/04/10 12:14:40;;;;;;;1.70;1.60;;;36.40;32.70;;;;;;5511809;25;20466;-82
2024/04/10 12:17:08;;;;;;;1.57;1.40;;;35.10;33.00;;;;;;5507462;26;20517;-82
2024/04/10 12:19:38;;;;;;;4.20;2.20;;;34.40;34.80;;;;;;5507260;26;20468;-82
2024/04/10 12:22:05;;;;;;;1.73;1.63;;;33.40;35.40;;;;;;5498622;26;20540;-82
2024/04/10 12:24:36;;;;;;;2.03;1.77;;;34.40;35.00;;;;;;5503389;26;20507;-82
2024/04/10 12:27:04;;;;;;;1.40;1.30;;;35.50;35.00;;;;;;5492168;26;20470;-81
2024/04/10 12:29:34;;;;;;;2.40;1.57;;;35.10;33.70;;;;;;5504042;26;20476;-81
2024/04/10 12:32:03;;;;;;;1.80;1.40;;;35.30;34.00;;;;;;5499724;26;20465;-81
2024/04/10 12:34:36;;;;;;;1.60;1.47;;;35.70;34.60;;;;;;5508147;26;20514;-83
2024/04/10 12:39:52;;;;;;;1.30;1.20;;;38.40;31.20;;;;;;5498571;26;20506;-82
2024/04/10 12:42:21;;;;;;;1.33;1.30;;;39.50;30.00;;;;;;5504487;26;20458;-83
2024/04/10 12:44:48;;;;;;;1.10;1.10;;;40.30;29.10;;;;;;5499040;26;20510;-83
2024/04/10 12:47:20;;;;;;;1.73;1.20;;;41.00;28.60;;;;;;5506325;26;20512;-82
2024/04/10 12:49:47;;;;;;;1.50;1.00;;;40.90;28.10;;;;;;5518952;25;20464;-83
2024/04/10 12:52:17;;;;;;;1.83;1.10;;;40.60;28.60;;;;;;5518813;26;20464;-83
2024/04/10 12:54:44;;;;;;;1.13;1.10;;;39.50;28.60;;;;;;5510677;25;20458;-83
2024/04/10 12:57:14;;;;;;;1.50;1.40;;;38.30;29.80;;;;;;5499627;25;20486;-82
2024/04/10 12:59:41;;;;;;;1.43;1.30;;;38.40;30.00;;;;;;5510285;26;20509;-81